Time;durP1;ratioP1;P1;durP2;ratioP2;P2;SDS_P1;SDS_P2;PMS_P1;PMS_P2;Temp;Humidity;BMP_temperature;BMP_pressure;BME280_temperature;BME280_humidity;BME280_pressure;Samples;Min_cycle;Max_cycle;Signal;HPM_P1;HPM_P2
2022/01/30 00:01:36;;;;;;;21.67;4.57;;;7.00;77.20;;;;;;5047988;28;20426;-67
2022/01/30 00:04:01;;;;;;;35.53;5.50;;;6.90;76.40;;;;;;5032529;28;20091;-67
2022/01/30 00:06:27;;;;;;;37.58;6.30;;;7.00;76.10;;;;;;5050978;28;20075;-67
2022/01/30 00:08:52;;;;;;;30.70;5.97;;;7.00;75.90;;;;;;5049784;28;20044;-67
2022/01/30 00:11:22;;;;;;;24.25;4.35;;;7.00;76.20;;;;;;5059688;28;20405;-67
2022/01/30 00:13:48;;;;;;;36.67;5.90;;;6.90;76.10;;;;;;5032372;28;20410;-67
2022/01/30 00:16:17;;;;;;;30.95;5.03;;;7.00;75.70;;;;;;5056734;28;20121;-67
2022/01/30 00:21:30;;;;;;;31.08;5.70;;;6.90;76.00;;;;;;5062674;28;20045;-67
2022/01/30 00:24:13;;;;;;;25.95;6.40;;;6.90;75.90;;;;;;5056046;28;20045;-67
2022/01/30 00:26:40;;;;;;;24.10;4.57;;;7.10;75.90;;;;;;5064744;28;20057;-67
2022/01/30 00:29:07;;;;;;;26.70;4.38;;;7.00;76.80;;;;;;5049457;28;20051;-67
2022/01/30 00:31:34;;;;;;;18.60;3.45;;;7.00;77.30;;;;;;5058547;28;20041;-67
2022/01/30 00:34:01;;;;;;;22.52;3.60;;;6.90;76.90;;;;;;5047723;28;20056;-67
2022/01/30 00:36:29;;;;;;;21.33;3.28;;;6.90;75.70;;;;;;5052871;28;20045;-67
2022/01/30 00:38:55;;;;;;;25.52;3.78;;;6.60;76.70;;;;;;5045268;28;20534;-67
2022/01/30 00:41:21;;;;;;;25.95;4.60;;;6.70;76.60;;;;;;5053917;28;20369;-67
2022/01/30 00:43:46;;;;;;;27.08;6.72;;;6.60;76.70;;;;;;5045356;28;20045;-67
2022/01/30 00:46:12;;;;;;;15.20;3.20;;;6.50;77.40;;;;;;5049111;28;20040;-67
2022/01/30 00:48:37;;;;;;;12.80;2.92;;;6.40;77.80;;;;;;5061151;28;20052;-67
2022/01/30 00:51:03;;;;;;;18.60;4.05;;;6.30;78.60;;;;;;5049975;28;20040;-67
2022/01/30 00:53:29;;;;;;;25.02;4.65;;;6.30;78.80;;;;;;5050832;28;20543;-67
2022/01/30 00:55:54;;;;;;;18.50;3.53;;;6.10;78.90;;;;;;5038343;28;20033;-68
2022/01/30 00:58:20;;;;;;;16.23;3.05;;;6.10;78.90;;;;;;5048543;28;20182;-67
2022/01/30 01:00:45;;;;;;;23.63;3.67;;;6.10;78.80;;;;;;5039888;28;20044;-68
2022/01/30 01:03:11;;;;;;;20.48;4.75;;;6.00;79.50;;;;;;5047982;28;20045;-67
2022/01/30 01:05:38;;;;;;;22.65;3.47;;;6.00;79.50;;;;;;5048648;28;20049;-67
2022/01/30 01:08:17;;;;;;;21.13;4.25;;;5.90;79.80;;;;;;5048050;28;20049;-67
2022/01/30 01:10:55;;;;;;;24.35;5.28;;;5.90;80.00;;;;;;5048697;28;20045;-67
2022/01/30 01:24:04;;;;;;;34.40;8.07;;;6.00;80.70;;;;;;5045478;28;20507;-67
2022/01/30 01:26:31;;;;;;;35.22;5.78;;;6.10;80.20;;;;;;5047926;28;20033;-67
2022/01/30 01:28:56;;;;;;;24.92;5.30;;;6.20;79.60;;;;;;5047963;28;20084;-67
2022/01/30 01:31:23;;;;;;;30.67;4.70;;;6.20;78.50;;;;;;5047792;28;20077;-67
2022/01/30 01:36:34;;;;;;;26.58;5.47;;;6.40;77.60;;;;;;5046732;28;20049;-67
2022/01/30 01:39:00;;;;;;;25.88;4.55;;;6.50;77.60;;;;;;5052655;28;20033;-67
2022/01/30 01:41:28;;;;;;;25.05;6.30;;;6.40;77.30;;;;;;5052024;28;20033;-67
2022/01/30 01:43:54;;;;;;;33.17;6.70;;;6.40;77.40;;;;;;5046436;28;20048;-67
2022/01/30 01:46:24;;;;;;;21.25;4.57;;;6.40;77.60;;;;;;5052328;28;20040;-67
2022/01/30 01:48:52;;;;;;;30.65;5.45;;;6.50;77.10;;;;;;5037284;28;20486;-67
2022/01/30 01:51:21;;;;;;;45.92;8.20;;;6.60;77.20;;;;;;5038933;28;20037;-67
2022/01/30 01:53:56;;;;;;;23.20;4.75;;;6.60;77.10;;;;;;5047933;28;20116;-67
2022/01/30 01:56:22;;;;;;;49.20;6.20;;;6.60;77.70;;;;;;5052617;28;20579;-67
2022/01/30 01:58:48;;;;;;;24.15;6.00;;;6.60;77.50;;;;;;5046921;28;20037;-67
2022/01/30 02:01:14;;;;;;;35.22;5.30;;;6.80;76.90;;;;;;5049592;28;20037;-68
2022/01/30 02:03:41;;;;;;;30.15;6.07;;;6.80;77.40;;;;;;5050865;28;20049;-67
2022/01/30 02:06:11;;;;;;;33.22;6.50;;;6.70;77.70;;;;;;5052236;28;20049;-67
2022/01/30 02:08:43;;;;;;;40.40;6.10;;;6.80;77.00;;;;;;5051145;28;20099;-68
2022/01/30 02:11:13;;;;;;;31.58;6.70;;;6.90;76.10;;;;;;5052465;28;20045;-68
2022/01/30 02:27:19;;;;;;;25.25;4.90;;;6.40;77.60;;;;;;5044732;28;20514;-67
2022/01/30 02:29:45;;;;;;;28.65;4.35;;;6.40;78.10;;;;;;5050694;28;20460;-67
2022/01/30 02:32:11;;;;;;;29.48;6.57;;;6.30;78.30;;;;;;5048935;28;20048;-68
2022/01/30 02:34:37;;;;;;;17.83;4.05;;;6.40;78.60;;;;;;5047591;28;20052;-67
2022/01/30 02:37:03;;;;;;;23.95;4.55;;;6.30;79.10;;;;;;5037565;28;20402;-67
2022/01/30 02:39:29;;;;;;;31.45;4.78;;;6.40;79.30;;;;;;5051455;28;20048;-67
2022/01/30 02:41:55;;;;;;;35.40;6.45;;;6.50;79.00;;;;;;5049876;28;20624;-67
2022/01/30 02:44:29;;;;;;;31.95;6.35;;;6.60;79.00;;;;;;5048814;28;20052;-67
2022/01/30 02:46:59;;;;;;;28.15;5.05;;;6.40;79.40;;;;;;5049792;28;20037;-67
2022/01/30 02:49:39;;;;;;;30.85;8.20;;;6.40;79.70;;;;;;5049592;28;20036;-67
2022/01/30 02:52:06;;;;;;;33.80;5.40;;;6.50;79.30;;;;;;5045826;28;20052;-67
2022/01/30 02:54:32;;;;;;;33.97;6.10;;;6.40;79.20;;;;;;5050926;28;20049;-67
2022/01/30 02:56:58;;;;;;;38.47;6.53;;;6.50;79.00;;;;;;5042615;28;20481;-67
2022/01/30 02:59:24;;;;;;;47.42;8.15;;;6.50;79.20;;;;;;5048023;28;20502;-67
2022/01/30 03:01:50;;;;;;;39.65;7.32;;;6.50;79.30;;;;;;5045182;28;20098;-67
2022/01/30 03:04:17;;;;;;;34.50;7.53;;;6.60;79.10;;;;;;5031131;28;20123;-67
2022/01/30 03:06:44;;;;;;;44.33;10.27;;;6.50;79.40;;;;;;5039122;28;20045;-67
2022/01/30 03:09:10;;;;;;;39.08;6.13;;;6.40;80.10;;;;;;5050114;28;20516;-68
2022/01/30 03:11:37;;;;;;;36.45;7.10;;;6.40;80.20;;;;;;5050962;28;20074;-67
2022/01/30 03:14:04;;;;;;;37.28;7.05;;;6.40;80.70;;;;;;5048696;28;20391;-67
2022/01/30 03:16:30;;;;;;;39.40;6.75;;;6.30;80.60;;;;;;5030959;28;20052;-67
2022/01/30 03:18:56;;;;;;;41.05;6.90;;;6.40;80.50;;;;;;5047921;28;20037;-67
2022/01/30 03:21:22;;;;;;;43.47;6.47;;;6.20;81.00;;;;;;5046556;28;20041;-67
2022/01/30 03:23:48;;;;;;;43.55;8.13;;;6.20;81.00;;;;;;5032931;28;20049;-67
2022/01/30 03:26:15;;;;;;;45.50;6.45;;;6.20;80.60;;;;;;5048918;28;20041;-67
2022/01/30 03:28:43;;;;;;;44.60;10.10;;;6.30;80.50;;;;;;5050247;28;20099;-67
2022/01/30 03:31:12;;;;;;;60.80;9.25;;;6.30;80.70;;;;;;5062522;28;20056;-67
2022/01/30 03:33:38;;;;;;;39.45;7.32;;;6.50;80.40;;;;;;5050502;28;20052;-67
2022/01/30 03:36:05;;;;;;;35.88;6.15;;;6.40;80.90;;;;;;5048968;28;20163;-67
2022/01/30 03:38:31;;;;;;;34.72;6.72;;;6.40;81.20;;;;;;5050339;28;20646;-68
2022/01/30 03:40:57;;;;;;;25.42;5.68;;;6.40;81.30;;;;;;5038512;28;20116;-67
2022/01/30 03:43:22;;;;;;;31.90;5.97;;;6.30;81.70;;;;;;5045121;28;20132;-67
2022/01/30 03:45:49;;;;;;;30.90;5.95;;;6.20;81.70;;;;;;5049724;28;20059;-67
2022/01/30 03:48:15;;;;;;;45.13;10.15;;;6.20;81.60;;;;;;5049954;28;20183;-67
2022/01/30 03:50:42;;;;;;;41.05;8.48;;;6.10;81.80;;;;;;5026727;28;20073;-67
2022/01/30 03:53:08;;;;;;;35.40;8.00;;;6.10;81.80;;;;;;5048931;28;20122;-67
2022/01/30 03:55:34;;;;;;;46.05;6.60;;;6.10;82.10;;;;;;5045615;28;20064;-67
2022/01/30 03:58:01;;;;;;;42.22;8.05;;;6.00;82.30;;;;;;5050153;28;20056;-67
2022/01/30 04:00:27;;;;;;;45.60;9.10;;;5.90;82.50;;;;;;5047162;28;20134;-67
2022/01/30 04:02:53;;;;;;;45.60;8.93;;;5.90;82.30;;;;;;5049968;28;20517;-68
2022/01/30 04:05:19;;;;;;;42.72;8.43;;;6.00;81.80;;;;;;5046546;28;20051;-67
2022/01/30 04:07:46;;;;;;;49.65;7.00;;;6.00;80.80;;;;;;5049127;28;20552;-67
2022/01/30 04:10:13;;;;;;;34.75;6.88;;;6.10;78.10;;;;;;5045105;28;20053;-67
2022/01/30 04:12:39;;;;;;;42.20;7.55;;;6.20;75.80;;;;;;5050037;28;20081;-67
2022/01/30 04:15:05;;;;;;;39.30;9.45;;;6.20;72.70;;;;;;5049727;28;20135;-67
2022/01/30 04:17:31;;;;;;;39.30;6.00;;;6.20;72.40;;;;;;5050071;28;20098;-67
2022/01/30 04:19:57;;;;;;;33.50;7.45;;;6.20;71.90;;;;;;5049769;28;20448;-67
2022/01/30 04:22:22;;;;;;;36.53;6.53;;;6.40;72.10;;;;;;5047941;28;20403;-67
2022/01/30 04:24:48;;;;;;;42.22;7.00;;;6.40;70.50;;;;;;5049533;28;20048;-68
2022/01/30 04:27:14;;;;;;;41.53;5.55;;;6.40;70.60;;;;;;5048324;28;20095;-67
2022/01/30 04:29:40;;;;;;;45.92;11.43;;;6.40;70.80;;;;;;5034684;28;20037;-67
2022/01/30 04:32:06;;;;;;;37.67;5.50;;;6.50;70.80;;;;;;5049599;28;20236;-67
2022/01/30 04:34:32;;;;;;;28.10;7.00;;;6.40;69.20;;;;;;5032657;28;20056;-67
2022/01/30 04:37:15;;;;;;;34.40;6.30;;;6.50;69.10;;;;;;5048767;28;20236;-67
2022/01/30 05:03:36;;;;;;;54.25;8.77;;;6.30;69.90;;;;;;5048590;28;20136;-67
2022/01/30 05:06:08;;;;;;;40.20;7.90;;;6.30;70.60;;;;;;5040207;28;20053;-67
2022/01/30 05:08:34;;;;;;;51.40;8.93;;;6.30;70.70;;;;;;5047974;28;20045;-67
2022/01/30 05:11:06;;;;;;;45.63;8.07;;;6.20;71.30;;;;;;5048900;28;20049;-67
2022/01/30 05:13:34;;;;;;;;;;;6.40;70.70;;;;;;5048878;28;20127;-67
2022/01/30 05:16:00;;;;;;;30.27;6.45;;;6.30;70.10;;;;;;5047195;28;19925;-66
2022/01/30 05:18:28;;;;;;;37.63;6.80;;;6.30;70.70;;;;;;5047511;28;20055;-67
2022/01/30 05:20:54;;;;;;;34.75;5.63;;;6.40;69.50;;;;;;5048672;28;20094;-66
2022/01/30 05:23:20;;;;;;;58.88;12.15;;;6.50;68.90;;;;;;5048570;28;20040;-66
2022/01/30 05:25:47;;;;;;;37.65;7.80;;;6.40;68.90;;;;;;5047266;28;20428;-66
2022/01/30 05:28:18;;;;;;;53.08;12.00;;;6.40;67.80;;;;;;5048555;28;20120;-66
2022/01/30 05:30:44;;;;;;;40.72;7.03;;;6.40;68.50;;;;;;5048399;28;20048;-66
2022/01/30 05:33:12;;;;;;;33.00;6.28;;;6.40;66.80;;;;;;5048584;28;20037;-66
2022/01/30 05:35:38;;;;;;;32.25;5.88;;;6.40;68.00;;;;;;5048909;28;20047;-67
2022/01/30 05:38:04;;;;;;;38.35;7.80;;;6.40;68.20;;;;;;5048663;28;20040;-66
2022/01/30 05:40:31;;;;;;;45.45;6.88;;;6.40;68.40;;;;;;5047888;28;20414;-66
2022/01/30 05:42:58;;;;;;;45.80;7.28;;;6.50;68.10;;;;;;5048619;28;20080;-66
2022/01/30 05:47:57;;;;;;;37.03;8.60;;;6.40;68.30;;;;;;5048488;28;20052;-66
2022/01/30 05:50:24;;;;;;;43.80;7.80;;;6.40;69.00;;;;;;5047228;28;20114;-66
2022/01/30 05:52:49;;;;;;;48.03;7.43;;;6.30;69.20;;;;;;5048651;28;20037;-66
2022/01/30 05:55:15;;;;;;;47.78;8.88;;;6.20;69.60;;;;;;5046726;28;20379;-66
2022/01/30 05:57:41;;;;;;;40.83;11.15;;;6.30;70.10;;;;;;5048235;28;20090;-66
2022/01/30 06:00:13;;;;;;;36.78;6.93;;;6.30;70.20;;;;;;5048521;28;20183;-67
2022/01/30 06:02:39;;;;;;;;;;;6.50;69.90;;;;;;5047406;28;20072;-66
2022/01/30 06:05:07;;;;;;;41.25;7.57;;;6.40;69.20;;;;;;5047985;28;20404;-66
2022/01/30 06:07:32;;;;;;;53.15;8.98;;;6.60;69.30;;;;;;5047674;28;20048;-66
2022/01/30 06:09:58;;;;;;;35.15;6.93;;;6.70;68.10;;;;;;5048010;28;20370;-66
2022/01/30 06:12:24;;;;;;;42.15;7.35;;;6.60;67.90;;;;;;5047225;28;20065;-66
2022/01/30 06:14:49;;;;;;;39.55;7.68;;;6.60;68.30;;;;;;5048193;28;20159;-66
2022/01/30 06:17:15;;;;;;;39.25;6.97;;;6.60;67.20;;;;;;5047668;28;20138;-66
2022/01/30 06:19:41;;;;;;;45.08;7.05;;;6.70;67.50;;;;;;5047692;28;20040;-66
2022/01/30 06:22:07;;;;;;;51.10;8.32;;;6.60;68.00;;;;;;5047387;28;20494;-65
2022/01/30 06:24:33;;;;;;;47.55;7.18;;;6.60;68.60;;;;;;5051129;28;20048;-67
2022/01/30 06:26:58;;;;;;;47.83;8.40;;;6.60;68.80;;;;;;5033784;28;20056;-66
2022/01/30 06:29:24;;;;;;;40.15;7.30;;;6.60;69.20;;;;;;5051856;28;20095;-66
2022/01/30 06:31:49;;;;;;;49.55;9.43;;;6.50;69.80;;;;;;5052062;28;20037;-67
2022/01/30 06:34:15;;;;;;;47.67;8.55;;;6.50;69.50;;;;;;5048882;28;20498;-66
2022/01/30 06:36:41;;;;;;;34.42;8.25;;;6.50;68.10;;;;;;5035710;28;20048;-66
2022/01/30 06:39:06;;;;;;;30.73;7.78;;;6.50;68.00;;;;;;5058651;28;20421;-66
2022/01/30 06:41:32;;;;;;;38.22;7.03;;;6.40;67.00;;;;;;5064973;28;20401;-66
2022/01/30 06:43:58;;;;;;;40.00;6.47;;;6.40;67.70;;;;;;5051435;28;20044;-66
2022/01/30 06:46:23;;;;;;;54.25;7.28;;;6.40;68.20;;;;;;5048677;28;20045;-66
2022/01/30 06:48:49;;;;;;;49.40;6.85;;;6.50;69.00;;;;;;5050972;28;20532;-66
2022/01/30 06:51:14;;;;;;;52.67;8.25;;;6.60;68.60;;;;;;5050588;28;20045;-67
2022/01/30 06:53:40;;;;;;;45.25;9.00;;;6.60;69.00;;;;;;5033479;28;20413;-66
2022/01/30 06:56:07;;;;;;;42.88;7.40;;;6.60;69.60;;;;;;5050321;28;20049;-66
2022/01/30 06:58:33;;;;;;;41.72;7.68;;;6.60;69.60;;;;;;5047384;28;20124;-66
2022/01/30 07:00:59;;;;;;;54.40;7.55;;;6.60;69.10;;;;;;5051525;28;20128;-66
2022/01/30 07:03:24;;;;;;;42.40;6.85;;;6.50;69.80;;;;;;5050250;28;20490;-66
2022/01/30 07:05:50;;;;;;;56.33;9.55;;;6.40;70.40;;;;;;5050165;28;20041;-66
2022/01/30 07:08:16;;;;;;;45.05;9.20;;;6.50;70.40;;;;;;5050171;28;20486;-66
2022/01/30 07:10:41;;;;;;;46.63;9.82;;;6.50;70.60;;;;;;5048619;28;20444;-66
2022/01/30 07:13:08;;;;;;;44.38;7.65;;;6.40;71.20;;;;;;5045690;28;20048;-66
2022/01/30 07:15:34;;;;;;;50.08;7.53;;;6.50;71.40;;;;;;5040786;28;20164;-66
2022/01/30 07:18:00;;;;;;;52.08;9.52;;;6.40;71.40;;;;;;5032913;28;20081;-66
2022/01/30 07:20:26;;;;;;;51.22;9.48;;;6.50;71.50;;;;;;5050151;28;20115;-66
2022/01/30 07:22:51;;;;;;;61.20;11.48;;;6.50;71.60;;;;;;5049733;28;20132;-67
2022/01/30 07:25:17;;;;;;;53.47;8.55;;;6.60;69.60;;;;;;5049775;28;20498;-67
2022/01/30 07:27:43;;;;;;;35.80;8.68;;;6.60;68.60;;;;;;5050313;28;20037;-66
2022/01/30 07:30:09;;;;;;;42.88;8.70;;;6.70;68.30;;;;;;5050613;28;20171;-66
2022/01/30 07:32:35;;;;;;;40.88;7.28;;;6.60;67.90;;;;;;5050242;28;20497;-66
2022/01/30 07:35:01;;;;;;;43.53;8.50;;;6.60;67.20;;;;;;5049522;28;20041;-67
2022/01/30 07:37:27;;;;;;;42.40;7.88;;;6.60;66.30;;;;;;5050983;28;20102;-66
2022/01/30 07:39:54;;;;;;;42.67;7.78;;;6.50;66.80;;;;;;5048605;28;20045;-66
2022/01/30 07:42:21;;;;;;;44.90;7.97;;;6.40;66.80;;;;;;5050773;28;20110;-66
2022/01/30 07:44:46;;;;;;;46.97;7.53;;;6.40;66.80;;;;;;5049900;28;20099;-67
2022/01/30 07:47:12;;;;;;;66.13;15.88;;;6.60;66.80;;;;;;5049230;28;20045;-67
2022/01/30 07:49:38;;;;;;;44.72;7.18;;;6.50;67.10;;;;;;5049846;28;20119;-66
2022/01/30 07:52:04;;;;;;;42.17;9.10;;;6.50;67.40;;;;;;5050070;28;20041;-67
2022/01/30 07:54:32;;;;;;;44.55;7.65;;;6.40;67.30;;;;;;5050463;28;20091;-66
2022/01/30 07:56:57;;;;;;;38.78;9.45;;;6.60;66.40;;;;;;5049557;28;20041;-67
2022/01/30 07:59:23;;;;;;;52.10;7.10;;;6.60;66.00;;;;;;5049331;28;20048;-66
2022/01/30 08:01:49;;;;;;;51.65;10.38;;;6.50;65.70;;;;;;5050514;28;20045;-67
2022/01/30 08:04:14;;;;;;;49.50;9.02;;;6.40;66.20;;;;;;5031552;28;20494;-67
2022/01/30 08:06:40;;;;;;;69.68;9.70;;;6.50;65.90;;;;;;5049155;28;20051;-67
2022/01/30 08:09:05;;;;;;;52.80;8.65;;;6.50;66.60;;;;;;5048998;28;20471;-67
2022/01/30 08:11:31;;;;;;;41.80;9.35;;;6.40;67.20;;;;;;5050173;28;20044;-67
2022/01/30 08:13:57;;;;;;;56.78;7.68;;;6.50;67.00;;;;;;5032151;28;20410;-67
2022/01/30 08:16:24;;;;;;;48.13;9.23;;;6.30;67.80;;;;;;5050165;28;20037;-67
2022/01/30 08:18:49;;;;;;;49.20;8.70;;;6.30;68.00;;;;;;5049464;28;20040;-67
2022/01/30 08:21:15;;;;;;;48.13;8.95;;;6.40;67.50;;;;;;5031499;28;20585;-67
2022/01/30 08:23:41;;;;;;;43.55;5.72;;;6.30;66.10;;;;;;5046294;28;20033;-67
2022/01/30 08:26:06;;;;;;;33.92;5.95;;;6.30;66.30;;;;;;5037893;28;20077;-66
2022/01/30 08:28:32;;;;;;;37.58;7.93;;;6.30;63.40;;;;;;5043627;28;20045;-65
2022/01/30 08:30:57;;;;;;;37.97;8.25;;;6.20;63.00;;;;;;5044990;28;20048;-66
2022/01/30 08:33:24;;;;;;;37.78;7.00;;;6.30;63.70;;;;;;5048267;28;20429;-66
2022/01/30 08:35:50;;;;;;;35.50;7.70;;;6.30;62.40;;;;;;5045227;28;20506;-67
2022/01/30 08:38:18;;;;;;;40.33;6.20;;;6.20;61.60;;;;;;5033974;28;20050;-66
2022/01/30 08:40:46;;;;;;;37.65;7.80;;;6.20;63.10;;;;;;5037676;28;20050;-67
2022/01/30 08:43:12;;;;;;;38.17;6.82;;;6.10;62.40;;;;;;5050080;28;20063;-66
2022/01/30 08:45:38;;;;;;;34.28;7.97;;;6.20;63.40;;;;;;5052130;28;20045;-66
2022/01/30 08:48:04;;;;;;;42.17;6.32;;;6.20;64.00;;;;;;5046931;28;20103;-67
2022/01/30 08:50:30;;;;;;;40.70;7.55;;;6.20;64.10;;;;;;5044668;28;20448;-66
2022/01/30 08:52:56;;;;;;;35.17;7.35;;;6.30;64.60;;;;;;5063806;28;20132;-66
2022/01/30 08:55:23;;;;;;;48.45;10.27;;;6.20;64.50;;;;;;5030302;28;20036;-66
2022/01/30 08:57:49;;;;;;;38.35;5.53;;;6.30;64.60;;;;;;5048783;28;20086;-66
2022/01/30 09:00:16;;;;;;;41.90;8.05;;;6.30;64.10;;;;;;5058473;28;20048;-66
2022/01/30 09:02:43;;;;;;;48.25;7.45;;;6.30;64.70;;;;;;5065766;28;20106;-66
2022/01/30 09:05:10;;;;;;;33.50;7.07;;;6.40;64.80;;;;;;5050792;28;20052;-67
2022/01/30 09:07:37;;;;;;;40.38;7.90;;;6.50;64.10;;;;;;5047914;28;20037;-66
2022/01/30 09:10:08;;;;;;;42.15;8.55;;;6.40;65.10;;;;;;5064013;28;20063;-65
2022/01/30 09:12:34;;;;;;;47.78;9.43;;;6.50;65.30;;;;;;5054013;28;20102;-66
2022/01/30 09:15:08;;;;;;;46.08;7.70;;;6.50;65.80;;;;;;5045860;28;20045;-66
2022/01/30 09:17:33;;;;;;;44.47;6.88;;;6.50;66.20;;;;;;5048423;28;20311;-66
2022/01/30 09:20:00;;;;;;;53.03;8.23;;;6.60;66.50;;;;;;5048360;28;20098;-66
2022/01/30 09:22:25;;;;;;;47.47;9.32;;;6.60;66.70;;;;;;5036112;28;20060;-66
2022/01/30 09:24:51;;;;;;;49.92;8.48;;;6.60;67.10;;;;;;5029165;28;20049;-66
2022/01/30 09:27:17;;;;;;;47.72;10.52;;;6.70;67.70;;;;;;5029506;28;20391;-66
2022/01/30 09:29:44;;;;;;;54.65;9.38;;;6.70;69.00;;;;;;5053651;28;20103;-66
2022/01/30 09:32:10;;;;;;;62.83;8.07;;;6.70;69.50;;;;;;5048935;28;20552;-67
2022/01/30 09:34:37;;;;;;;51.63;9.95;;;6.80;70.10;;;;;;5047671;28;20049;-66
2022/01/30 09:37:04;;;;;;;64.32;12.25;;;6.90;70.40;;;;;;5048693;28;20120;-66
2022/01/30 09:39:29;;;;;;;49.65;7.80;;;6.90;69.70;;;;;;5053643;28;20084;-66
2022/01/30 09:41:56;;;;;;;46.00;9.02;;;6.90;68.80;;;;;;5048895;28;20084;-66
2022/01/30 09:44:22;;;;;;;47.03;8.20;;;6.90;69.10;;;;;;5057049;28;20044;-66
2022/01/30 09:46:50;;;;;;;48.28;8.23;;;6.90;68.10;;;;;;5046362;28;20072;-65
2022/01/30 09:49:19;;;;;;;52.13;9.10;;;7.00;68.10;;;;;;5046001;28;20056;-66
2022/01/30 09:51:44;;;;;;;48.15;9.27;;;6.90;67.70;;;;;;5032461;28;20049;-66
2022/01/30 09:54:12;;;;;;;42.30;8.30;;;6.80;66.90;;;;;;5037234;28;20137;-65
2022/01/30 09:56:39;;;;;;;45.97;8.88;;;6.80;65.80;;;;;;5048180;28;20041;-65
2022/01/30 09:59:05;;;;;;;37.35;7.97;;;6.90;65.00;;;;;;5051175;28;20037;-65
2022/01/30 10:01:35;;;;;;;36.83;7.40;;;6.90;64.30;;;;;;5051819;28;20378;-65
2022/01/30 10:04:02;;;;;;;38.28;7.82;;;7.00;64.00;;;;;;5050706;28;20519;-67
2022/01/30 10:06:34;;;;;;;34.88;8.27;;;6.90;63.80;;;;;;5050883;28;20088;-67
2022/01/30 10:09:09;;;;;;;39.70;8.63;;;7.00;64.20;;;;;;5050115;28;20102;-67
2022/01/30 10:11:59;;;;;;;36.97;7.88;;;7.00;64.10;;;;;;5047039;28;20059;-66
2022/01/30 10:14:25;;;;;;;51.58;7.50;;;7.10;64.10;;;;;;5051727;28;20356;-67
2022/01/30 10:16:51;;;;;;;42.78;7.47;;;7.10;64.30;;;;;;5052003;28;20040;-67
2022/01/30 10:19:20;;;;;;;39.38;6.38;;;7.10;63.90;;;;;;5051339;28;20053;-66
2022/01/30 10:22:01;;;;;;;32.45;6.85;;;7.10;64.10;;;;;;5050943;28;20383;-67
2022/01/30 10:24:28;;;;;;;53.42;6.53;;;7.10;63.30;;;;;;5045384;28;20041;-67
2022/01/30 10:27:02;;;;;;;42.42;8.00;;;7.10;60.80;;;;;;5051623;28;20063;-66
2022/01/30 10:29:30;;;;;;;32.58;4.57;;;7.10;61.60;;;;;;5051414;28;20257;-66
2022/01/30 10:31:58;;;;;;;42.72;6.57;;;7.20;61.50;;;;;;5051184;28;20064;-67
2022/01/30 10:34:23;;;;;;;35.67;7.22;;;7.10;61.00;;;;;;5051969;28;20048;-66
2022/01/30 10:36:49;;;;;;;39.80;7.97;;;7.20;62.30;;;;;;5051152;28;20055;-66
2022/01/30 10:39:18;;;;;;;34.13;8.15;;;7.20;62.40;;;;;;5050729;28;20394;-66
2022/01/30 10:41:52;;;;;;;44.10;6.53;;;7.30;61.70;;;;;;5050460;28;20585;-66
2022/01/30 10:44:19;;;;;;;47.20;7.72;;;7.40;60.40;;;;;;5050861;28;20109;-67
2022/01/30 10:46:51;;;;;;;44.22;8.88;;;7.30;60.50;;;;;;5051009;28;20078;-66
2022/01/30 10:49:22;;;;;;;36.65;6.25;;;7.30;60.80;;;;;;5048477;28;20041;-62
2022/01/30 10:51:58;;;;;;;37.75;6.82;;;7.40;61.00;;;;;;5048231;28;20091;-67
2022/01/30 10:54:29;;;;;;;37.83;7.63;;;7.30;60.40;;;;;;5047915;28;21136;-66
2022/01/30 10:57:06;;;;;;;38.22;5.88;;;7.50;60.50;;;;;;5050917;28;20562;-66
2022/01/30 10:59:32;;;;;;;46.03;7.75;;;7.50;59.90;;;;;;5051395;28;20044;-65
2022/01/30 11:02:25;;;;;;;35.53;5.80;;;7.50;59.70;;;;;;5050801;28;20049;-67
2022/01/30 11:05:01;;;;;;;33.17;6.10;;;7.30;59.40;;;;;;5048549;28;20346;-66
2022/01/30 11:07:29;;;;;;;30.35;5.28;;;7.40;59.10;;;;;;5051261;28;20040;-67
2022/01/30 11:10:06;;;;;;;46.05;7.07;;;7.30;57.90;;;;;;5050027;28;20041;-65
2022/01/30 11:12:46;;;;;;;29.20;8.38;;;7.40;58.30;;;;;;5049596;28;20056;-66
2022/01/30 11:15:23;;;;;;;42.75;6.90;;;7.30;58.40;;;;;;5043385;28;20517;-65
2022/01/30 11:17:50;;;;;;;33.35;5.93;;;7.40;58.30;;;;;;5049665;28;20049;-65
2022/01/30 11:20:16;;;;;;;37.13;6.38;;;7.40;59.20;;;;;;5049398;28;20067;-65
2022/01/30 11:22:45;;;;;;;47.90;7.97;;;7.50;59.20;;;;;;5049515;28;20099;-65
2022/01/30 11:25:12;;;;;;;43.85;7.63;;;7.50;59.60;;;;;;5050485;28;20183;-65
2022/01/30 11:27:42;;;;;;;39.85;7.13;;;7.50;60.10;;;;;;5049311;28;20053;-64
2022/01/30 11:30:09;;;;;;;42.90;6.15;;;7.50;60.70;;;;;;5050324;28;20494;-65
2022/01/30 11:32:35;;;;;;;39.63;6.47;;;7.50;61.50;;;;;;5049773;28;20048;-65
2022/01/30 11:35:00;;;;;;;46.17;8.20;;;7.40;61.90;;;;;;5050768;28;20037;-65
2022/01/30 11:37:32;;;;;;;34.28;6.40;;;7.50;61.90;;;;;;5049892;28;20044;-65
2022/01/30 11:40:00;;;;;;;43.15;7.85;;;7.40;61.60;;;;;;5050614;28;20425;-64
2022/01/30 11:42:35;;;;;;;43.92;7.60;;;7.40;62.40;;;;;;5050111;28;20155;-65
2022/01/30 11:45:03;;;;;;;34.75;6.25;;;7.40;62.70;;;;;;5050053;28;20450;-65
2022/01/30 11:47:41;;;;;;;46.95;9.15;;;7.60;62.50;;;;;;5049019;28;20098;-64
2022/01/30 11:50:10;;;;;;;43.58;7.32;;;7.50;61.90;;;;;;5048137;28;20060;-64
2022/01/30 11:52:46;;;;;;;40.33;8.93;;;7.50;61.80;;;;;;5049550;28;20508;-65
2022/01/30 11:55:51;;;;;;;38.30;6.65;;;7.60;62.10;;;;;;5046522;28;20041;-65
2022/01/30 11:58:38;;;;;;;46.78;8.63;;;7.60;62.40;;;;;;5047517;28;20040;-65
2022/01/30 12:01:24;;;;;;;44.97;7.38;;;7.60;62.10;;;;;;5047463;28;20048;-65
2022/01/30 12:04:01;;;;;;;40.75;8.40;;;7.60;62.40;;;;;;5046415;28;20052;-65
2022/01/30 12:06:28;;;;;;;39.00;6.68;;;7.70;62.30;;;;;;5048583;28;20609;-66
2022/01/30 12:08:55;;;;;;;32.70;5.75;;;7.80;61.10;;;;;;5048028;28;20523;-65
2022/01/30 12:11:47;;;;;;;35.03;6.63;;;7.90;59.60;;;;;;5049885;28;20403;-65
2022/01/30 12:14:21;;;;;;;38.50;5.88;;;7.90;59.20;;;;;;5048744;28;20048;-65
2022/01/30 12:16:56;;;;;;;30.35;5.97;;;7.70;57.90;;;;;;5049078;28;20128;-65
2022/01/30 12:19:31;;;;;;;37.00;6.05;;;7.80;57.70;;;;;;5050031;28;20055;-65
2022/01/30 12:22:20;;;;;;;50.03;6.35;;;7.70;58.90;;;;;;5049453;28;20045;-65
2022/01/30 12:24:48;;;;;;;35.70;6.47;;;7.80;59.60;;;;;;5049069;28;20090;-65
2022/01/30 12:27:14;;;;;;;42.67;6.63;;;7.90;59.60;;;;;;5048742;28;20240;-65
2022/01/30 12:29:51;;;;;;;50.90;10.18;;;8.00;60.00;;;;;;5049783;28;20045;-64
2022/01/30 12:32:22;;;;;;;41.33;6.38;;;8.00;60.80;;;;;;5047389;28;20056;-65
2022/01/30 12:34:54;;;;;;;41.92;7.43;;;8.00;60.80;;;;;;5050028;28;20413;-65
2022/01/30 12:37:25;;;;;;;31.08;6.07;;;8.00;60.00;;;;;;5048599;28;20045;-65
2022/01/30 12:39:52;;;;;;;46.45;7.93;;;7.90;60.50;;;;;;5030509;28;20099;-65
2022/01/30 12:42:19;;;;;;;40.28;7.60;;;7.80;60.50;;;;;;5049542;28;20056;-66
2022/01/30 12:44:45;;;;;;;46.50;7.90;;;7.80;61.40;;;;;;5049323;28;20094;-65
2022/01/30 12:47:14;;;;;;;51.80;8.07;;;7.70;62.00;;;;;;5031210;28;20045;-66
2022/01/30 12:49:44;;;;;;;38.70;8.57;;;7.70;62.20;;;;;;5047391;28;20049;-66
2022/01/30 12:52:20;;;;;;;46.47;7.60;;;7.70;63.00;;;;;;5047606;28;20484;-66
2022/01/30 12:54:49;;;;;;;39.30;8.60;;;7.70;63.60;;;;;;5047784;28;20414;-66
2022/01/30 12:57:17;;;;;;;36.97;7.18;;;7.70;63.80;;;;;;5048178;28;20333;-66
2022/01/30 12:59:51;;;;;;;37.55;6.70;;;7.70;64.20;;;;;;5049120;28;20106;-66
2022/01/30 13:02:17;;;;;;;36.88;6.32;;;7.90;63.20;;;;;;5048278;28;20045;-65
2022/01/30 13:04:42;;;;;;;34.83;7.72;;;7.80;63.60;;;;;;5049024;28;20053;-65
2022/01/30 13:07:13;;;;;;;35.15;6.85;;;7.80;63.30;;;;;;5049077;28;20044;-65
2022/01/30 13:09:39;;;;;;;39.63;8.27;;;7.80;63.10;;;;;;5048766;28;20056;-65
2022/01/30 13:12:16;;;;;;;35.22;8.48;;;7.80;63.50;;;;;;5049245;28;20059;-65
2022/01/30 13:14:42;;;;;;;46.20;7.05;;;7.90;62.50;;;;;;5049259;28;20045;-65
2022/01/30 13:17:10;;;;;;;36.38;5.43;;;7.90;61.40;;;;;;5048126;28;20206;-65
2022/01/30 13:19:45;;;;;;;32.10;6.82;;;7.80;61.20;;;;;;5048329;28;20071;-67
2022/01/30 13:22:23;;;;;;;27.90;5.95;;;7.80;60.90;;;;;;5048069;28;20532;-64
2022/01/30 13:24:55;;;;;;;39.70;7.50;;;7.70;61.70;;;;;;5048168;28;20037;-65
2022/01/30 13:27:21;;;;;;;38.08;7.03;;;7.60;62.30;;;;;;5030695;28;20045;-64
2022/01/30 13:29:47;;;;;;;36.53;6.30;;;7.40;62.80;;;;;;5047902;28;20039;-65
2022/01/30 13:32:13;;;;;;;39.35;7.97;;;7.50;63.10;;;;;;5048686;28;20120;-65
2022/01/30 13:34:44;;;;;;;38.42;7.40;;;7.30;63.60;;;;;;5046689;28;20041;-65
2022/01/30 13:37:14;;;;;;;37.80;6.80;;;7.30;64.10;;;;;;5048742;28;20052;-65
2022/01/30 13:39:51;;;;;;;30.85;5.22;;;7.30;64.50;;;;;;5046773;28;20124;-65
2022/01/30 13:48:10;;;;;;;35.75;5.78;;;7.60;64.30;;;;;;5028437;28;20056;-65
2022/01/30 13:51:06;;;;;;;31.48;5.55;;;7.60;62.30;;;;;;5046706;28;20144;-65
2022/01/30 13:53:36;;;;;;;32.38;5.90;;;7.60;61.70;;;;;;5042336;28;20041;-65
2022/01/30 13:56:12;;;;;;;33.47;5.63;;;7.60;62.60;;;;;;5047609;28;20060;-65